sensor_id;sensor_type;location;lat;lon;timestamp;P1;durP1;ratioP1;P2;durP2;ratioP2
1725;SDS011;41776;48.260;8.928;2022-07-06T00:01:25;7.93;;;2.73;;
1725;SDS011;41776;48.260;8.928;2022-07-06T00:03:52;6.23;;;1.63;;
1725;SDS011;41776;48.260;8.928;2022-07-06T00:06:18;1.90;;;1.80;;
1725;SDS011;41776;48.260;8.928;2022-07-06T00:08:46;2.00;;;1.70;;
1725;SDS011;41776;48.260;8.928;2022-07-06T00:11:12;6.73;;;1.80;;
1725;SDS011;41776;48.260;8.928;2022-07-06T00:13:39;3.30;;;1.60;;
1725;SDS011;41776;48.260;8.928;2022-07-06T00:16:05;3.87;;;1.57;;
1725;SDS011;41776;48.260;8.928;2022-07-06T00:18:32;2.23;;;1.80;;
1725;SDS011;41776;48.260;8.928;2022-07-06T00:20:58;2.07;;;1.70;;
1725;SDS011;41776;48.260;8.928;2022-07-06T00:23:25;5.70;;;2.10;;
1725;SDS011;41776;48.260;8.928;2022-07-06T00:25:53;3.87;;;2.00;;
1725;SDS011;41776;48.260;8.928;2022-07-06T00:28:19;5.63;;;1.63;;
1725;SDS011;41776;48.260;8.928;2022-07-06T00:30:46;2.67;;;1.67;;
1725;SDS011;41776;48.260;8.928;2022-07-06T00:33:12;5.90;;;2.00;;
1725;SDS011;41776;48.260;8.928;2022-07-06T00:35:39;4.73;;;1.83;;
1725;SDS011;41776;48.260;8.928;2022-07-06T00:38:05;6.90;;;2.07;;
1725;SDS011;41776;48.260;8.928;2022-07-06T00:40:31;2.37;;;1.60;;
1725;SDS011;41776;48.260;8.928;2022-07-06T00:42:59;2.53;;;1.53;;
1725;SDS011;41776;48.260;8.928;2022-07-06T00:45:26;2.67;;;1.90;;
1725;SDS011;41776;48.260;8.928;2022-07-06T00:47:52;2.00;;;1.80;;
1725;SDS011;41776;48.260;8.928;2022-07-06T00:50:19;2.57;;;1.70;;
1725;SDS011;41776;48.260;8.928;2022-07-06T00:52:47;3.30;;;2.00;;
1725;SDS011;41776;48.260;8.928;2022-07-06T00:55:15;5.07;;;1.93;;
1725;SDS011;41776;48.260;8.928;2022-07-06T00:57:42;4.87;;;1.80;;
1725;SDS011;41776;48.260;8.928;2022-07-06T01:00:11;2.53;;;1.60;;
1725;SDS011;41776;48.260;8.928;2022-07-06T01:02:39;5.73;;;1.90;;
1725;SDS011;41776;48.260;8.928;2022-07-06T01:05:08;7.93;;;2.27;;
1725;SDS011;41776;48.260;8.928;2022-07-06T01:07:35;3.77;;;2.07;;
1725;SDS011;41776;48.260;8.928;2022-07-06T01:10:03;4.43;;;2.30;;
1725;SDS011;41776;48.260;8.928;2022-07-06T01:12:30;3.57;;;1.97;;
1725;SDS011;41776;48.260;8.928;2022-07-06T01:14:58;3.27;;;1.90;;
1725;SDS011;41776;48.260;8.928;2022-07-06T01:17:26;4.23;;;1.80;;
1725;SDS011;41776;48.260;8.928;2022-07-06T01:19:52;6.97;;;2.37;;
1725;SDS011;41776;48.260;8.928;2022-07-06T01:22:20;5.60;;;1.97;;
1725;SDS011;41776;48.260;8.928;2022-07-06T01:24:46;7.60;;;2.13;;
1725;SDS011;41776;48.260;8.928;2022-07-06T01:27:13;2.97;;;2.27;;
1725;SDS011;41776;48.260;8.928;2022-07-06T01:29:39;3.40;;;2.57;;
1725;SDS011;41776;48.260;8.928;2022-07-06T01:32:06;5.33;;;2.47;;
1725;SDS011;41776;48.260;8.928;2022-07-06T01:34:32;6.20;;;2.80;;
1725;SDS011;41776;48.260;8.928;2022-07-06T01:37:00;3.60;;;2.53;;
1725;SDS011;41776;48.260;8.928;2022-07-06T01:39:28;6.13;;;2.67;;
1725;SDS011;41776;48.260;8.928;2022-07-06T01:41:54;13.27;;;2.53;;
1725;SDS011;41776;48.260;8.928;2022-07-06T01:44:21;7.07;;;2.50;;
1725;SDS011;41776;48.260;8.928;2022-07-06T01:46:47;5.60;;;2.73;;
1725;SDS011;41776;48.260;8.928;2022-07-06T01:49:13;6.60;;;2.70;;
1725;SDS011;41776;48.260;8.928;2022-07-06T01:51:40;5.93;;;2.50;;
1725;SDS011;41776;48.260;8.928;2022-07-06T01:54:06;3.90;;;3.00;;
1725;SDS011;41776;48.260;8.928;2022-07-06T01:56:34;7.17;;;2.90;;
1725;SDS011;41776;48.260;8.928;2022-07-06T01:59:00;2.97;;;2.60;;
1725;SDS011;41776;48.260;8.928;2022-07-06T02:01:27;4.03;;;2.70;;
1725;SDS011;41776;48.260;8.928;2022-07-06T02:03:53;8.30;;;3.50;;
1725;SDS011;41776;48.260;8.928;2022-07-06T02:06:20;12.93;;;3.30;;
1725;SDS011;41776;48.260;8.928;2022-07-06T02:08:46;4.57;;;2.60;;
1725;SDS011;41776;48.260;8.928;2022-07-06T02:11:13;6.73;;;3.00;;
1725;SDS011;41776;48.260;8.928;2022-07-06T02:13:40;6.40;;;2.70;;
1725;SDS011;41776;48.260;8.928;2022-07-06T02:16:07;7.97;;;2.80;;
1725;SDS011;41776;48.260;8.928;2022-07-06T02:18:33;6.00;;;3.10;;
1725;SDS011;41776;48.260;8.928;2022-07-06T02:21:00;9.67;;;3.40;;
1725;SDS011;41776;48.260;8.928;2022-07-06T02:23:27;6.53;;;3.23;;
1725;SDS011;41776;48.260;8.928;2022-07-06T02:25:53;5.60;;;2.97;;
1725;SDS011;41776;48.260;8.928;2022-07-06T02:28:20;4.90;;;3.07;;
1725;SDS011;41776;48.260;8.928;2022-07-06T02:30:47;7.18;;;3.35;;
1725;SDS011;41776;48.260;8.928;2022-07-06T02:33:14;7.03;;;3.10;;
1725;SDS011;41776;48.260;8.928;2022-07-06T02:35:40;7.20;;;3.30;;
1725;SDS011;41776;48.260;8.928;2022-07-06T02:38:08;9.73;;;3.30;;
1725;SDS011;41776;48.260;8.928;2022-07-06T02:40:35;7.47;;;3.80;;
1725;SDS011;41776;48.260;8.928;2022-07-06T02:43:02;4.57;;;3.70;;
1725;SDS011;41776;48.260;8.928;2022-07-06T02:45:28;6.07;;;3.60;;
1725;SDS011;41776;48.260;8.928;2022-07-06T02:47:56;5.80;;;3.80;;
1725;SDS011;41776;48.260;8.928;2022-07-06T02:50:23;5.13;;;3.47;;
1725;SDS011;41776;48.260;8.928;2022-07-06T02:52:49;6.80;;;3.40;;
1725;SDS011;41776;48.260;8.928;2022-07-06T02:55:16;8.70;;;4.03;;
1725;SDS011;41776;48.260;8.928;2022-07-06T02:57:43;8.03;;;3.53;;
1725;SDS011;41776;48.260;8.928;2022-07-06T03:00:10;8.30;;;3.73;;
1725;SDS011;41776;48.260;8.928;2022-07-06T03:02:37;9.13;;;3.70;;
1725;SDS011;41776;48.260;8.928;2022-07-06T03:05:05;8.67;;;3.83;;
1725;SDS011;41776;48.260;8.928;2022-07-06T03:07:32;9.83;;;3.83;;
1725;SDS011;41776;48.260;8.928;2022-07-06T03:09:58;8.67;;;4.53;;
1725;SDS011;41776;48.260;8.928;2022-07-06T03:12:25;6.73;;;4.03;;
1725;SDS011;41776;48.260;8.928;2022-07-06T03:14:51;8.83;;;4.43;;
1725;SDS011;41776;48.260;8.928;2022-07-06T03:17:18;10.33;;;4.23;;
1725;SDS011;41776;48.260;8.928;2022-07-06T03:19:44;5.93;;;4.37;;
1725;SDS011;41776;48.260;8.928;2022-07-06T03:22:12;7.07;;;4.47;;
1725;SDS011;41776;48.260;8.928;2022-07-06T03:24:39;5.37;;;4.00;;
1725;SDS011;41776;48.260;8.928;2022-07-06T03:27:05;8.73;;;3.87;;
1725;SDS011;41776;48.260;8.928;2022-07-06T03:29:32;7.13;;;4.07;;
1725;SDS011;41776;48.260;8.928;2022-07-06T03:31:58;9.87;;;4.00;;
1725;SDS011;41776;48.260;8.928;2022-07-06T03:34:25;6.77;;;4.03;;
1725;SDS011;41776;48.260;8.928;2022-07-06T03:36:51;6.57;;;4.03;;
1725;SDS011;41776;48.260;8.928;2022-07-06T03:39:19;8.50;;;4.43;;
1725;SDS011;41776;48.260;8.928;2022-07-06T03:41:46;6.93;;;4.47;;
1725;SDS011;41776;48.260;8.928;2022-07-06T03:44:12;7.43;;;4.60;;
1725;SDS011;41776;48.260;8.928;2022-07-06T03:46:39;7.77;;;4.40;;
1725;SDS011;41776;48.260;8.928;2022-07-06T03:49:05;8.30;;;4.40;;
1725;SDS011;41776;48.260;8.928;2022-07-06T03:51:32;4.87;;;4.00;;
1725;SDS011;41776;48.260;8.928;2022-07-06T03:53:58;7.33;;;4.30;;
1725;SDS011;41776;48.260;8.928;2022-07-06T03:56:26;12.00;;;4.53;;
1725;SDS011;41776;48.260;8.928;2022-07-06T03:58:58;7.03;;;4.60;;
1725;SDS011;41776;48.260;8.928;2022-07-06T04:01:26;6.47;;;4.83;;
1725;SDS011;41776;48.260;8.928;2022-07-06T04:03:53;8.83;;;5.23;;
1725;SDS011;41776;48.260;8.928;2022-07-06T04:06:19;7.30;;;4.50;;
1725;SDS011;41776;48.260;8.928;2022-07-06T04:08:46;6.77;;;4.40;;
1725;SDS011;41776;48.260;8.928;2022-07-06T04:11:12;5.43;;;3.80;;
1725;SDS011;41776;48.260;8.928;2022-07-06T04:13:40;4.73;;;3.43;;
1725;SDS011;41776;48.260;8.928;2022-07-06T04:16:07;7.83;;;4.07;;
1725;SDS011;41776;48.260;8.928;2022-07-06T04:18:33;6.27;;;4.20;;
1725;SDS011;41776;48.260;8.928;2022-07-06T04:21:00;5.60;;;3.90;;
1725;SDS011;41776;48.260;8.928;2022-07-06T04:23:27;9.77;;;4.03;;
1725;SDS011;41776;48.260;8.928;2022-07-06T04:25:54;7.30;;;4.70;;
1725;SDS011;41776;48.260;8.928;2022-07-06T04:28:20;13.53;;;4.90;;
1725;SDS011;41776;48.260;8.928;2022-07-06T04:30:48;9.53;;;4.23;;
1725;SDS011;41776;48.260;8.928;2022-07-06T04:33:14;5.80;;;4.30;;
1725;SDS011;41776;48.260;8.928;2022-07-06T04:35:41;6.17;;;4.00;;
1725;SDS011;41776;48.260;8.928;2022-07-06T04:38:07;6.77;;;3.83;;
1725;SDS011;41776;48.260;8.928;2022-07-06T04:40:34;9.07;;;4.33;;
1725;SDS011;41776;48.260;8.928;2022-07-06T04:43:00;6.37;;;4.10;;
1725;SDS011;41776;48.260;8.928;2022-07-06T04:45:27;7.13;;;4.10;;
1725;SDS011;41776;48.260;8.928;2022-07-06T04:47:55;8.20;;;4.10;;
1725;SDS011;41776;48.260;8.928;2022-07-06T04:50:21;5.50;;;3.40;;
1725;SDS011;41776;48.260;8.928;2022-07-06T04:52:47;5.97;;;4.00;;
1725;SDS011;41776;48.260;8.928;2022-07-06T04:55:14;5.67;;;3.63;;
1725;SDS011;41776;48.260;8.928;2022-07-06T04:57:40;6.97;;;3.60;;
1725;SDS011;41776;48.260;8.928;2022-07-06T05:00:07;4.23;;;3.50;;
1725;SDS011;41776;48.260;8.928;2022-07-06T05:02:35;5.50;;;3.50;;
1725;SDS011;41776;48.260;8.928;2022-07-06T05:05:03;5.03;;;3.63;;
1725;SDS011;41776;48.260;8.928;2022-07-06T05:07:30;9.30;;;3.50;;
1725;SDS011;41776;48.260;8.928;2022-07-06T05:09:59;7.43;;;3.37;;
1725;SDS011;41776;48.260;8.928;2022-07-06T05:12:25;4.93;;;3.40;;
1725;SDS011;41776;48.260;8.928;2022-07-06T05:14:51;6.30;;;3.03;;
1725;SDS011;41776;48.260;8.928;2022-07-06T05:17:18;4.37;;;3.07;;
1725;SDS011;41776;48.260;8.928;2022-07-06T05:19:44;5.70;;;3.07;;
1725;SDS011;41776;48.260;8.928;2022-07-06T05:22:12;4.43;;;3.20;;
1725;SDS011;41776;48.260;8.928;2022-07-06T05:24:39;4.43;;;3.20;;
1725;SDS011;41776;48.260;8.928;2022-07-06T05:27:05;3.10;;;2.43;;
1725;SDS011;41776;48.260;8.928;2022-07-06T05:29:31;6.53;;;3.50;;
1725;SDS011;41776;48.260;8.928;2022-07-06T05:31:58;6.27;;;3.30;;
1725;SDS011;41776;48.260;8.928;2022-07-06T05:34:24;3.47;;;2.83;;
1725;SDS011;41776;48.260;8.928;2022-07-06T05:36:51;4.82;;;3.08;;
1725;SDS011;41776;48.260;8.928;2022-07-06T05:39:18;6.32;;;2.53;;
1725;SDS011;41776;48.260;8.928;2022-07-06T05:41:47;4.13;;;2.60;;
1725;SDS011;41776;48.260;8.928;2022-07-06T05:44:14;3.67;;;2.30;;
1725;SDS011;41776;48.260;8.928;2022-07-06T05:46:40;4.30;;;2.88;;
1725;SDS011;41776;48.260;8.928;2022-07-06T05:49:07;11.77;;;3.03;;
1725;SDS011;41776;48.260;8.928;2022-07-06T05:51:51;6.57;;;2.88;;
1725;SDS011;41776;48.260;8.928;2022-07-06T05:54:19;4.70;;;2.28;;
1725;SDS011;41776;48.260;8.928;2022-07-06T05:56:46;6.65;;;2.40;;
1725;SDS011;41776;48.260;8.928;2022-07-06T05:59:12;2.85;;;1.80;;
1725;SDS011;41776;48.260;8.928;2022-07-06T06:01:38;5.22;;;2.10;;
1725;SDS011;41776;48.260;8.928;2022-07-06T06:04:05;7.22;;;2.38;;
1725;SDS011;41776;48.260;8.928;2022-07-06T06:06:32;4.90;;;2.25;;
1725;SDS011;41776;48.260;8.928;2022-07-06T06:08:58;4.70;;;2.05;;
1725;SDS011;41776;48.260;8.928;2022-07-06T06:11:26;3.35;;;2.20;;
1725;SDS011;41776;48.260;8.928;2022-07-06T06:13:53;5.72;;;1.95;;
1725;SDS011;41776;48.260;8.928;2022-07-06T06:16:19;3.80;;;2.03;;
1725;SDS011;41776;48.260;8.928;2022-07-06T06:18:45;3.72;;;1.63;;
1725;SDS011;41776;48.260;8.928;2022-07-06T06:21:12;3.30;;;2.17;;
1725;SDS011;41776;48.260;8.928;2022-07-06T06:23:38;7.40;;;2.22;;
1725;SDS011;41776;48.260;8.928;2022-07-06T06:26:05;6.72;;;2.40;;
1725;SDS011;41776;48.260;8.928;2022-07-06T06:28:32;6.72;;;1.83;;
1725;SDS011;41776;48.260;8.928;2022-07-06T06:30:59;5.13;;;2.47;;
1725;SDS011;41776;48.260;8.928;2022-07-06T06:33:25;5.57;;;1.88;;
1725;SDS011;41776;48.260;8.928;2022-07-06T06:35:52;3.08;;;1.90;;
1725;SDS011;41776;48.260;8.928;2022-07-06T06:38:20;6.70;;;2.17;;
1725;SDS011;41776;48.260;8.928;2022-07-06T06:40:50;3.05;;;1.50;;
1725;SDS011;41776;48.260;8.928;2022-07-06T06:43:17;5.82;;;1.80;;
1725;SDS011;41776;48.260;8.928;2022-07-06T06:45:45;4.53;;;1.95;;
1725;SDS011;41776;48.260;8.928;2022-07-06T06:48:11;4.43;;;2.35;;
1725;SDS011;41776;48.260;8.928;2022-07-06T06:50:38;2.67;;;2.00;;
1725;SDS011;41776;48.260;8.928;2022-07-06T06:53:04;7.80;;;2.20;;
1725;SDS011;41776;48.260;8.928;2022-07-06T06:55:31;9.02;;;2.50;;
1725;SDS011;41776;48.260;8.928;2022-07-06T06:57:57;6.75;;;2.45;;
1725;SDS011;41776;48.260;8.928;2022-07-06T07:00:23;5.25;;;2.22;;
1725;SDS011;41776;48.260;8.928;2022-07-06T07:02:51;8.75;;;2.97;;
1725;SDS011;41776;48.260;8.928;2022-07-06T07:05:18;8.43;;;2.45;;
1725;SDS011;41776;48.260;8.928;2022-07-06T07:07:44;4.35;;;2.15;;
1725;SDS011;41776;48.260;8.928;2022-07-06T07:10:11;5.93;;;2.47;;
1725;SDS011;41776;48.260;8.928;2022-07-06T07:12:42;5.95;;;2.40;;
1725;SDS011;41776;48.260;8.928;2022-07-06T07:15:09;4.13;;;2.10;;
1725;SDS011;41776;48.260;8.928;2022-07-06T07:17:36;5.57;;;2.40;;
1725;SDS011;41776;48.260;8.928;2022-07-06T07:20:06;2.58;;;2.00;;
1725;SDS011;41776;48.260;8.928;2022-07-06T07:22:33;3.72;;;2.25;;
1725;SDS011;41776;48.260;8.928;2022-07-06T07:24:59;2.92;;;2.10;;
1725;SDS011;41776;48.260;8.928;2022-07-06T07:27:26;5.82;;;2.60;;
1725;SDS011;41776;48.260;8.928;2022-07-06T07:29:53;5.15;;;2.05;;
1725;SDS011;41776;48.260;8.928;2022-07-06T07:32:19;5.93;;;2.50;;
1725;SDS011;41776;48.260;8.928;2022-07-06T07:34:49;4.10;;;2.30;;
1725;SDS011;41776;48.260;8.928;2022-07-06T07:37:16;6.43;;;2.53;;
1725;SDS011;41776;48.260;8.928;2022-07-06T07:39:43;6.00;;;2.45;;
1725;SDS011;41776;48.260;8.928;2022-07-06T07:42:09;6.85;;;2.28;;
1725;SDS011;41776;48.260;8.928;2022-07-06T07:44:39;7.15;;;2.58;;
1725;SDS011;41776;48.260;8.928;2022-07-06T07:47:06;5.30;;;2.28;;
1725;SDS011;41776;48.260;8.928;2022-07-06T07:49:32;5.57;;;2.13;;
1725;SDS011;41776;48.260;8.928;2022-07-06T07:51:59;3.45;;;2.30;;
1725;SDS011;41776;48.260;8.928;2022-07-06T07:54:27;4.13;;;2.35;;
1725;SDS011;41776;48.260;8.928;2022-07-06T07:56:53;5.15;;;2.00;;
1725;SDS011;41776;48.260;8.928;2022-07-06T07:59:20;4.10;;;2.25;;
1725;SDS011;41776;48.260;8.928;2022-07-06T08:01:47;8.98;;;2.50;;
1725;SDS011;41776;48.260;8.928;2022-07-06T08:04:14;5.38;;;2.78;;
1725;SDS011;41776;48.260;8.928;2022-07-06T08:06:40;6.15;;;2.40;;
1725;SDS011;41776;48.260;8.928;2022-07-06T08:09:08;3.92;;;2.17;;
1725;SDS011;41776;48.260;8.928;2022-07-06T08:11:42;8.32;;;2.00;;
1725;SDS011;41776;48.260;8.928;2022-07-06T08:14:08;10.48;;;2.50;;
1725;SDS011;41776;48.260;8.928;2022-07-06T08:16:35;5.55;;;2.47;;
1725;SDS011;41776;48.260;8.928;2022-07-06T08:19:01;6.30;;;2.42;;
1725;SDS011;41776;48.260;8.928;2022-07-06T08:21:28;5.57;;;2.17;;
1725;SDS011;41776;48.260;8.928;2022-07-06T08:23:57;4.28;;;2.17;;
1725;SDS011;41776;48.260;8.928;2022-07-06T08:26:27;5.65;;;2.30;;
1725;SDS011;41776;48.260;8.928;2022-07-06T08:28:58;5.82;;;2.28;;
1725;SDS011;41776;48.260;8.928;2022-07-06T08:31:29;8.90;;;1.85;;
1725;SDS011;41776;48.260;8.928;2022-07-06T08:33:56;4.90;;;2.47;;
1725;SDS011;41776;48.260;8.928;2022-07-06T08:36:26;9.90;;;2.25;;
1725;SDS011;41776;48.260;8.928;2022-07-06T08:38:52;4.47;;;2.35;;
1725;SDS011;41776;48.260;8.928;2022-07-06T08:41:21;5.20;;;2.58;;
1725;SDS011;41776;48.260;8.928;2022-07-06T08:43:49;4.90;;;2.15;;
1725;SDS011;41776;48.260;8.928;2022-07-06T08:46:21;4.03;;;2.15;;
1725;SDS011;41776;48.260;8.928;2022-07-06T08:48:48;6.28;;;2.10;;
1725;SDS011;41776;48.260;8.928;2022-07-06T08:51:15;5.47;;;1.85;;
1725;SDS011;41776;48.260;8.928;2022-07-06T08:53:44;6.22;;;2.10;;
1725;SDS011;41776;48.260;8.928;2022-07-06T08:56:14;6.35;;;2.17;;
1725;SDS011;41776;48.260;8.928;2022-07-06T08:58:41;4.32;;;2.17;;
1725;SDS011;41776;48.260;8.928;2022-07-06T09:01:08;10.88;;;2.22;;
1725;SDS011;41776;48.260;8.928;2022-07-06T09:03:37;4.88;;;2.40;;
1725;SDS011;41776;48.260;8.928;2022-07-06T09:06:08;2.35;;;1.80;;
1725;SDS011;41776;48.260;8.928;2022-07-06T09:08:35;4.95;;;2.10;;
1725;SDS011;41776;48.260;8.928;2022-07-06T09:11:02;6.43;;;2.10;;
1725;SDS011;41776;48.260;8.928;2022-07-06T09:13:29;9.88;;;1.80;;
1725;SDS011;41776;48.260;8.928;2022-07-06T09:15:55;3.25;;;2.00;;
1725;SDS011;41776;48.260;8.928;2022-07-06T09:18:37;7.53;;;1.90;;
1725;SDS011;41776;48.260;8.928;2022-07-06T09:21:03;3.40;;;1.88;;
1725;SDS011;41776;48.260;8.928;2022-07-06T09:23:33;3.50;;;1.60;;
1725;SDS011;41776;48.260;8.928;2022-07-06T09:26:01;5.25;;;1.73;;
1725;SDS011;41776;48.260;8.928;2022-07-06T09:28:46;3.35;;;1.70;;
1725;SDS011;41776;48.260;8.928;2022-07-06T09:31:12;4.30;;;1.80;;
1725;SDS011;41776;48.260;8.928;2022-07-06T09:36:36;9.27;;;2.05;;
1725;SDS011;41776;48.260;8.928;2022-07-06T09:39:14;10.32;;;1.90;;
1725;SDS011;41776;48.260;8.928;2022-07-06T09:41:46;3.80;;;1.60;;
1725;SDS011;41776;48.260;8.928;2022-07-06T09:44:13;3.60;;;1.70;;
1725;SDS011;41776;48.260;8.928;2022-07-06T09:46:48;5.60;;;2.20;;
1725;SDS011;41776;48.260;8.928;2022-07-06T09:49:20;6.22;;;1.75;;
1725;SDS011;41776;48.260;8.928;2022-07-06T09:51:47;7.03;;;2.20;;
1725;SDS011;41776;48.260;8.928;2022-07-06T09:54:16;6.57;;;2.17;;
1725;SDS011;41776;48.260;8.928;2022-07-06T09:56:46;3.75;;;1.80;;
1725;SDS011;41776;48.260;8.928;2022-07-06T09:59:16;2.30;;;1.55;;
1725;SDS011;41776;48.260;8.928;2022-07-06T10:01:46;6.18;;;1.90;;
1725;SDS011;41776;48.260;8.928;2022-07-06T10:04:15;4.22;;;1.70;;
1725;SDS011;41776;48.260;8.928;2022-07-06T10:06:49;5.03;;;1.60;;
1725;SDS011;41776;48.260;8.928;2022-07-06T10:09:16;5.10;;;1.50;;
1725;SDS011;41776;48.260;8.928;2022-07-06T10:11:45;3.67;;;1.83;;
1725;SDS011;41776;48.260;8.928;2022-07-06T10:14:19;6.32;;;1.80;;
1725;SDS011;41776;48.260;8.928;2022-07-06T10:16:59;3.38;;;1.95;;
1725;SDS011;41776;48.260;8.928;2022-07-06T10:19:33;5.35;;;2.20;;
1725;SDS011;41776;48.260;8.928;2022-07-06T10:22:00;2.53;;;1.70;;
1725;SDS011;41776;48.260;8.928;2022-07-06T10:24:30;6.15;;;1.63;;
1725;SDS011;41776;48.260;8.928;2022-07-06T10:26:59;6.75;;;1.60;;
1725;SDS011;41776;48.260;8.928;2022-07-06T10:29:25;5.63;;;1.60;;
1725;SDS011;41776;48.260;8.928;2022-07-06T10:31:52;4.45;;;1.65;;
1725;SDS011;41776;48.260;8.928;2022-07-06T10:34:22;2.47;;;1.33;;
1725;SDS011;41776;48.260;8.928;2022-07-06T10:36:50;7.72;;;1.80;;
1725;SDS011;41776;48.260;8.928;2022-07-06T10:39:31;4.72;;;1.45;;
1725;SDS011;41776;48.260;8.928;2022-07-06T10:45:07;7.15;;;1.83;;
1725;SDS011;41776;48.260;8.928;2022-07-06T10:47:34;5.10;;;1.50;;
1725;SDS011;41776;48.260;8.928;2022-07-06T10:50:02;6.68;;;1.80;;
1725;SDS011;41776;48.260;8.928;2022-07-06T10:55:27;4.15;;;1.60;;
1725;SDS011;41776;48.260;8.928;2022-07-06T10:57:55;4.70;;;1.50;;
1725;SDS011;41776;48.260;8.928;2022-07-06T11:00:21;4.10;;;1.63;;
1725;SDS011;41776;48.260;8.928;2022-07-06T11:02:48;3.70;;;1.67;;
1725;SDS011;41776;48.260;8.928;2022-07-06T11:08:09;3.13;;;1.60;;
1725;SDS011;41776;48.260;8.928;2022-07-06T11:10:46;3.20;;;1.05;;
1725;SDS011;41776;48.260;8.928;2022-07-06T11:13:24;7.97;;;1.50;;
1725;SDS011;41776;48.260;8.928;2022-07-06T11:15:51;3.85;;;1.48;;
1725;SDS011;41776;48.260;8.928;2022-07-06T11:18:18;6.05;;;1.50;;
1725;SDS011;41776;48.260;8.928;2022-07-06T11:23:42;1.98;;;1.40;;
1725;SDS011;41776;48.260;8.928;2022-07-06T11:26:09;5.97;;;1.25;;
1725;SDS011;41776;48.260;8.928;2022-07-06T11:28:36;3.58;;;1.52;;
1725;SDS011;41776;48.260;8.928;2022-07-06T11:31:03;3.03;;;1.35;;
1725;SDS011;41776;48.260;8.928;2022-07-06T11:33:30;3.33;;;1.30;;
1725;SDS011;41776;48.260;8.928;2022-07-06T11:36:10;4.47;;;1.60;;
1725;SDS011;41776;48.260;8.928;2022-07-06T11:38:37;5.68;;;1.38;;
1725;SDS011;41776;48.260;8.928;2022-07-06T11:41:05;5.30;;;1.35;;
1725;SDS011;41776;48.260;8.928;2022-07-06T11:43:32;4.38;;;1.63;;
1725;SDS011;41776;48.260;8.928;2022-07-06T11:45:58;2.15;;;1.40;;
1725;SDS011;41776;48.260;8.928;2022-07-06T11:48:25;3.05;;;1.33;;
1725;SDS011;41776;48.260;8.928;2022-07-06T11:50:58;4.75;;;1.60;;
1725;SDS011;41776;48.260;8.928;2022-07-06T11:53:25;2.60;;;1.45;;
1725;SDS011;41776;48.260;8.928;2022-07-06T11:55:52;6.15;;;1.75;;
1725;SDS011;41776;48.260;8.928;2022-07-06T11:58:21;2.13;;;1.45;;
1725;SDS011;41776;48.260;8.928;2022-07-06T12:01:03;4.50;;;1.50;;
1725;SDS011;41776;48.260;8.928;2022-07-06T12:03:30;3.97;;;1.60;;
1725;SDS011;41776;48.260;8.928;2022-07-06T12:05:57;2.03;;;1.30;;
1725;SDS011;41776;48.260;8.928;2022-07-06T12:08:24;2.63;;;1.30;;
1725;SDS011;41776;48.260;8.928;2022-07-06T12:10:51;3.22;;;1.60;;
1725;SDS011;41776;48.260;8.928;2022-07-06T12:13:20;4.25;;;1.67;;
1725;SDS011;41776;48.260;8.928;2022-07-06T12:15:46;1.80;;;1.30;;
1725;SDS011;41776;48.260;8.928;2022-07-06T12:18:13;2.30;;;1.30;;
1725;SDS011;41776;48.260;8.928;2022-07-06T12:20:39;4.88;;;1.20;;
1725;SDS011;41776;48.260;8.928;2022-07-06T12:23:06;6.90;;;1.30;;
1725;SDS011;41776;48.260;8.928;2022-07-06T12:25:34;3.65;;;1.63;;
1725;SDS011;41776;48.260;8.928;2022-07-06T12:28:02;3.85;;;1.35;;
1725;SDS011;41776;48.260;8.928;2022-07-06T12:30:30;4.60;;;1.55;;
1725;SDS011;41776;48.260;8.928;2022-07-06T12:33:13;2.83;;;1.55;;
1725;SDS011;41776;48.260;8.928;2022-07-06T12:35:40;7.47;;;1.52;;
1725;SDS011;41776;48.260;8.928;2022-07-06T12:38:07;4.05;;;1.33;;
1725;SDS011;41776;48.260;8.928;2022-07-06T12:40:35;4.28;;;1.30;;
1725;SDS011;41776;48.260;8.928;2022-07-06T12:43:02;5.70;;;1.42;;
1725;SDS011;41776;48.260;8.928;2022-07-06T12:45:29;4.32;;;1.35;;
1725;SDS011;41776;48.260;8.928;2022-07-06T12:47:57;2.10;;;1.20;;
1725;SDS011;41776;48.260;8.928;2022-07-06T12:50:32;4.63;;;1.50;;
1725;SDS011;41776;48.260;8.928;2022-07-06T12:52:59;8.02;;;1.67;;
1725;SDS011;41776;48.260;8.928;2022-07-06T12:55:27;2.88;;;1.38;;
1725;SDS011;41776;48.260;8.928;2022-07-06T12:57:54;1.90;;;1.50;;
1725;SDS011;41776;48.260;8.928;2022-07-06T13:00:22;7.85;;;1.60;;
1725;SDS011;41776;48.260;8.928;2022-07-06T13:02:51;1.42;;;1.08;;
1725;SDS011;41776;48.260;8.928;2022-07-06T13:05:22;3.33;;;1.10;;
1725;SDS011;41776;48.260;8.928;2022-07-06T13:07:56;4.85;;;1.63;;
1725;SDS011;41776;48.260;8.928;2022-07-06T13:10:26;4.13;;;2.05;;
1725;SDS011;41776;48.260;8.928;2022-07-06T13:12:55;4.43;;;1.60;;
1725;SDS011;41776;48.260;8.928;2022-07-06T13:15:24;5.43;;;1.30;;
1725;SDS011;41776;48.260;8.928;2022-07-06T13:17:52;2.13;;;1.50;;
1725;SDS011;41776;48.260;8.928;2022-07-06T13:20:20;5.40;;;1.58;;
1725;SDS011;41776;48.260;8.928;2022-07-06T13:22:47;4.20;;;1.33;;
1725;SDS011;41776;48.260;8.928;2022-07-06T13:25:13;4.43;;;1.33;;
1725;SDS011;41776;48.260;8.928;2022-07-06T13:27:42;4.15;;;1.40;;
1725;SDS011;41776;48.260;8.928;2022-07-06T13:30:09;3.08;;;1.50;;
1725;SDS011;41776;48.260;8.928;2022-07-06T13:32:36;4.70;;;1.60;;
1725;SDS011;41776;48.260;8.928;2022-07-06T13:35:06;3.60;;;1.48;;
1725;SDS011;41776;48.260;8.928;2022-07-06T13:37:33;3.67;;;1.38;;
1725;SDS011;41776;48.260;8.928;2022-07-06T13:40:08;2.65;;;1.30;;
1725;SDS011;41776;48.260;8.928;2022-07-06T13:42:35;3.85;;;1.63;;
1725;SDS011;41776;48.260;8.928;2022-07-06T13:45:06;3.15;;;1.30;;
1725;SDS011;41776;48.260;8.928;2022-07-06T13:47:33;4.45;;;1.38;;
1725;SDS011;41776;48.260;8.928;2022-07-06T13:49:59;6.65;;;1.33;;
1725;SDS011;41776;48.260;8.928;2022-07-06T13:52:27;5.10;;;1.25;;
1725;SDS011;41776;48.260;8.928;2022-07-06T13:54:53;3.35;;;1.10;;
1725;SDS011;41776;48.260;8.928;2022-07-06T13:57:20;4.93;;;1.30;;
1725;SDS011;41776;48.260;8.928;2022-07-06T13:59:48;4.47;;;1.30;;
1725;SDS011;41776;48.260;8.928;2022-07-06T14:02:20;6.55;;;1.33;;
1725;SDS011;41776;48.260;8.928;2022-07-06T14:04:47;1.42;;;1.02;;
1725;SDS011;41776;48.260;8.928;2022-07-06T14:07:14;4.60;;;1.38;;
1725;SDS011;41776;48.260;8.928;2022-07-06T14:09:42;5.75;;;1.15;;
1725;SDS011;41776;48.260;8.928;2022-07-06T14:12:09;3.78;;;1.48;;
1725;SDS011;41776;48.260;8.928;2022-07-06T14:14:38;1.75;;;0.90;;
1725;SDS011;41776;48.260;8.928;2022-07-06T14:17:07;4.22;;;1.15;;
1725;SDS011;41776;48.260;8.928;2022-07-06T14:19:33;7.38;;;1.40;;
1725;SDS011;41776;48.260;8.928;2022-07-06T14:22:02;4.28;;;1.30;;
1725;SDS011;41776;48.260;8.928;2022-07-06T14:24:28;3.70;;;1.60;;
1725;SDS011;41776;48.260;8.928;2022-07-06T14:26:57;5.40;;;1.58;;
1725;SDS011;41776;48.260;8.928;2022-07-06T14:29:24;5.45;;;1.40;;
1725;SDS011;41776;48.260;8.928;2022-07-06T14:31:50;3.45;;;1.77;;
1725;SDS011;41776;48.260;8.928;2022-07-06T14:34:17;3.10;;;1.40;;
1725;SDS011;41776;48.260;8.928;2022-07-06T14:36:43;6.22;;;1.42;;
1725;SDS011;41776;48.260;8.928;2022-07-06T14:39:10;5.32;;;1.50;;
1725;SDS011;41776;48.260;8.928;2022-07-06T14:41:37;4.30;;;1.33;;
1725;SDS011;41776;48.260;8.928;2022-07-06T14:44:05;2.38;;;1.33;;
1725;SDS011;41776;48.260;8.928;2022-07-06T14:46:32;2.55;;;1.30;;
1725;SDS011;41776;48.260;8.928;2022-07-06T14:48:59;1.85;;;1.30;;
1725;SDS011;41776;48.260;8.928;2022-07-06T14:51:26;5.97;;;1.70;;
1725;SDS011;41776;48.260;8.928;2022-07-06T14:53:55;4.63;;;1.30;;
1725;SDS011;41776;48.260;8.928;2022-07-06T14:56:22;1.83;;;1.20;;
1725;SDS011;41776;48.260;8.928;2022-07-06T14:58:48;6.80;;;1.70;;
1725;SDS011;41776;48.260;8.928;2022-07-06T15:01:16;10.63;;;1.42;;
1725;SDS011;41776;48.260;8.928;2022-07-06T15:03:43;7.38;;;1.48;;
1725;SDS011;41776;48.260;8.928;2022-07-06T15:06:09;5.20;;;1.52;;
1725;SDS011;41776;48.260;8.928;2022-07-06T15:08:40;2.28;;;1.30;;
1725;SDS011;41776;48.260;8.928;2022-07-06T15:11:06;6.00;;;1.67;;
1725;SDS011;41776;48.260;8.928;2022-07-06T15:13:33;4.20;;;1.23;;
1725;SDS011;41776;48.260;8.928;2022-07-06T15:16:01;3.45;;;1.50;;
1725;SDS011;41776;48.260;8.928;2022-07-06T15:18:28;6.28;;;1.65;;